F/V Atalante — FVRQ — position and weather

sailwx.info

Track history (hours):
 
Tides and Currents Weather Stations Pressure Air Temp Water Temp Dewpoint Dewpoint Depression Visibility Wind Speed Wind Dir Waves Ship Positions

F/V Atalante

Last reported at 2018-May-20 11:19 UTC. Time now 2018-May-20 14:11 UTC.
Position N 46°37' W 003°13'.

Length 21 m; draft 3.9 m.

Type: Fishing. MMSI: 228854000.

Date/timePositionNaut miles runAvg speedWind from/ knotsBaromVisibWave heightAir tempDewpointWater temp
2018-May-20 11:19N 46°37' W 003°13'3 1.6
2018-May-20 09:29N 46°40' W 003°14'1 2.6
2018-May-20 08:59N 46°39' W 003°14'11 2.0
2018-May-20 03:29N 46°48' W 003°22'1 1.4
2018-May-20 03:00N 46°48' W 003°21'2 2.3
2018-May-20 02:19N 46°47' W 003°20'31 4.9
2018-May-19 20:01N 47°08' W 002°47'0 7.5
2018-May-19 20:00N 47°08' W 002°47'4 7.3
2018-May-19 19:30N 47°10' W 002°42'4 7.2
2018-May-19 19:00N 47°13' W 002°39'4 8.3
2018-May-19 18:30N 47°16' W 002°36'6 1.0
2018-May-19 12:49N 47°21' W 002°31'0 0.0
2018-May-17 19:21N 47°21' W 002°31'0 1.4
2018-May-17 18:59N 47°20' W 002°31'1 1.7
2018-May-17 18:29N 47°20' W 002°32'1 2.7
2018-May-17 18:01N 47°21' W 002°31'0 0.0
2018-May-17 14:07N 47°21' W 002°31'0 0.0
2018-May-17 13:57N 47°21' W 002°31'0 0.0
2018-May-17 13:20N 47°21' W 002°31'0 0.0
2018-May-17 13:00N 47°21' W 002°31'  
Track history (hours):
 
Tides and Currents Weather Stations Pressure Air Temp Water Temp Dewpoint Dewpoint Depression Visibility Wind Speed Wind Dir Waves Ship Positions

F/V Atalante

Last reported at 2018-May-20 11:19 UTC. Time now 2018-May-20 14:11 UTC.
Position N 46°37' W 003°13'.

Length 21 m; draft 3.9 m.

Type: Fishing. MMSI: 228854000.

Date/timePositionNaut miles runAvg speedWind from/ knotsBaromVisibWave heightAir tempDewpointWater temp
2018-May-20 11:19N 46°37' W 003°13'3 1.6
2018-May-20 09:29N 46°40' W 003°14'1 2.6
2018-May-20 08:59N 46°39' W 003°14'11 2.0
2018-May-20 03:29N 46°48' W 003°22'1 1.4
2018-May-20 03:00N 46°48' W 003°21'2 2.3
2018-May-20 02:19N 46°47' W 003°20'31 4.9
2018-May-19 20:01N 47°08' W 002°47'0 7.5
2018-May-19 20:00N 47°08' W 002°47'4 7.3
2018-May-19 19:30N 47°10' W 002°42'4 7.2
2018-May-19 19:00N 47°13' W 002°39'4 8.3
2018-May-19 18:30N 47°16' W 002°36'6 1.0
2018-May-19 12:49N 47°21' W 002°31'0 0.0
2018-May-17 19:21N 47°21' W 002°31'0 1.4
2018-May-17 18:59N 47°20' W 002°31'1 1.7
2018-May-17 18:29N 47°20' W 002°32'1 2.7
2018-May-17 18:01N 47°21' W 002°31'0 0.0
2018-May-17 14:07N 47°21' W 002°31'0 0.0
2018-May-17 13:57N 47°21' W 002°31'0 0.0
2018-May-17 13:20N 47°21' W 002°31'0 0.0
2018-May-17 13:00N 47°21' W 002°31'  

Dump ship's entire track history